Terminal Aerodrome Forecast
Issued by NWS Brownsville, TX

Home | Current Version | Previous Version | Text Only | Print | Product List | Glossary On
Versions: 1 2 3 4 5 6 7 8 9 10 11 12 13 14 15 16
000
FTUS44 KBRO 271130
TAFBRO
TAF
KBRO 271130Z 2712/2812 35008KT P6SM VCSH FEW010 SCT025 BKN100
      TEMPO 2712/2716 4SM SHRA BKN008
     FM271800 01010KT P6SM SCT025 BKN040
      TEMPO 2718/2722 4SM SHRA BKN015
     FM280000 01005KT P6SM BKN035 PROB30 2800/2806 SHRA BKN025
     FM280600 34005KT P6SM BKN030=

USA.gov is the U.S. government's official web portal to all federal, state and local government web resources and services.